WXM80 ListenWXM80 Stop

You find our weather info also at:

UK Metoffice

WeatherCloud

Weather Underground

Northeastern Weather Network

AWEKAS

Citizen Weather Observer Program (CWOP)

HAMweather, WeatherForYou, PWS Weather


Weather Underground History page Text

Daily Summary for July 20, 2017 Units:  English    Metric   Both
« Previous Day
Next Day »
Daily Weekly Monthly Yearly Custom
  High: Low: Average:
Temperature: 98.9 °F 71.6 °F 83.5 °F
Dew Point: 77.6 °F 68.9 °F 73.3 °F
Humidity: 96 % 43 % 74 %
Wind Speed: 7.0 mph 0.0 mph 0.8 mph
Wind Gust: 15.0 mph - -
Wind:- - SSW
Pressure: 29.94 in 29.79 in -
Precipitation: 0.00 in    
Historical Graphs
 
 
Tabular Data for July 20, 2017
Time Temperature Dew Point Pressure Wind Wind Speed Wind Gust Humidity Rainfall Rate (Hourly)
00:00 77.6 °F 72.4 °F 29.93 in WSW 0.7 mph 1.2 mph 84 % 0.00 in
00:05 77.6 °F 72.4 °F 29.93 in WSW 0.3 mph 1.2 mph 84 % 0.00 in
00:10 77.6 °F 72.4 °F 29.93 in WSW 0.4 mph 1.2 mph 84 % 0.00 in
00:15 77.6 °F 72.4 °F 29.94 in WSW 0.3 mph 2.3 mph 84 % 0.00 in
00:20 77.6 °F 72.4 °F 29.93 in WSW 0.1 mph 1.2 mph 84 % 0.00 in
00:25 77.6 °F 72.4 °F 29.93 in WSW 0.6 mph 1.2 mph 84 % 0.00 in
00:30 77.6 °F 72.4 °F 29.93 in WSW 0.5 mph 1.2 mph 84 % 0.00 in
00:35 77.6 °F 72.4 °F 29.93 in WSW 0.3 mph 1.2 mph 84 % 0.00 in
00:40 77.6 °F 72.4 °F 29.93 in WSW 0.1 mph 1.2 mph 84 % 0.00 in
00:45 77.5 °F 72.3 °F 29.93 in Calm     84 % 0.00 in
00:50 77.5 °F 72.3 °F 29.93 in Calm     84 % 0.00 in
00:56 77.4 °F 72.2 °F 29.93 in Calm   1.0 mph 84 % 0.00 in
01:01 77.3 °F 72.1 °F 29.93 in Calm     84 % 0.00 in
01:06 77.2 °F 72.0 °F 29.93 in Calm     84 % 0.00 in
01:11 77.1 °F 71.9 °F 29.93 in Calm     84 % 0.00 in
01:16 77.0 °F 71.8 °F 29.93 in Calm     84 % 0.00 in
01:21 76.8 °F 71.6 °F 29.93 in Calm     84 % 0.00 in
01:26 76.7 °F 71.5 °F 29.93 in Calm     84 % 0.00 in
01:31 76.5 °F 71.7 °F 29.92 in Calm     85 % 0.00 in
01:36 76.4 °F 71.6 °F 29.92 in Calm     85 % 0.00 in
01:41 76.2 °F 71.4 °F 29.93 in Calm     85 % 0.00 in
01:46 76.1 °F 71.6 °F 29.92 in Calm     86 % 0.00 in
01:51 76.0 °F 71.5 °F 29.92 in Calm     86 % 0.00 in
01:56 75.8 °F 71.3 °F 29.92 in Calm     86 % 0.00 in
02:01 75.7 °F 71.2 °F 29.92 in Calm     86 % 0.00 in
02:06 75.5 °F 71.0 °F 29.92 in Calm     86 % 0.00 in
02:11 75.4 °F 70.9 °F 29.92 in Calm     86 % 0.00 in
02:16 75.3 °F 71.2 °F 29.92 in Calm     87 % 0.00 in
02:21 75.1 °F 71.0 °F 29.92 in Calm     87 % 0.00 in
02:26 75.0 °F 71.2 °F 29.92 in Calm     88 % 0.00 in
02:31 74.9 °F 71.1 °F 29.92 in Calm     88 % 0.00 in
02:36 74.8 °F 71.0 °F 29.92 in Calm     88 % 0.00 in
02:41 74.7 °F 70.6 °F 29.92 in Calm     87 % 0.00 in
02:46 74.6 °F 70.8 °F 29.92 in Calm     88 % 0.00 in
02:52 74.5 °F 70.7 °F 29.92 in Calm     88 % 0.00 in
02:57 74.4 °F 70.6 °F 29.92 in Calm     88 % 0.00 in
03:02 74.3 °F 70.5 °F 29.92 in Calm     88 % 0.00 in
03:07 74.2 °F 70.4 °F 29.92 in Calm     88 % 0.00 in
03:12 74.2 °F 70.4 °F 29.92 in Calm     88 % 0.00 in
03:17 74.0 °F 70.2 °F 29.91 in Calm     88 % 0.00 in
03:22 74.0 °F 70.6 °F 29.91 in Calm     89 % 0.00 in
03:27 73.9 °F 70.5 °F 29.91 in Calm     89 % 0.00 in
03:32 73.8 °F 70.4 °F 29.92 in Calm     89 % 0.00 in
03:37 73.8 °F 70.4 °F 29.92 in Calm     89 % 0.00 in
03:42 73.7 °F 70.3 °F 29.92 in Calm     89 % 0.00 in
03:47 73.6 °F 70.2 °F 29.92 in Calm     89 % 0.00 in
03:52 73.5 °F 70.1 °F 29.91 in Calm     89 % 0.00 in
03:57 73.5 °F 70.4 °F 29.91 in Calm     90 % 0.00 in
04:02 73.4 °F 70.3 °F 29.91 in WSW 0.1 mph 1.2 mph 90 % 0.00 in
04:07 73.3 °F 70.2 °F 29.91 in Calm     90 % 0.00 in
04:12 73.2 °F 70.1 °F 29.91 in Calm     90 % 0.00 in
04:17 73.1 °F 70.0 °F 29.91 in Calm     90 % 0.00 in
04:22 73.0 °F 69.9 °F 29.91 in Calm     90 % 0.00 in
04:27 73.0 °F 69.9 °F 29.91 in Calm     90 % 0.00 in
04:32 72.9 °F 69.8 °F 29.91 in Calm     90 % 0.00 in
04:37 72.8 °F 69.7 °F 29.91 in Calm     90 % 0.00 in
04:42 72.7 °F 69.6 °F 29.91 in Calm     90 % 0.00 in
04:48 72.6 °F 69.5 °F 29.91 in Calm     90 % 0.00 in
04:53 72.5 °F 69.7 °F 29.91 in Calm     91 % 0.00 in
04:58 72.5 °F 69.7 °F 29.91 in Calm     91 % 0.00 in
05:03 72.4 °F 69.6 °F 29.92 in Calm     91 % 0.00 in
05:08 72.3 °F 69.5 °F 29.91 in Calm     91 % 0.00 in
05:13 72.2 °F 69.4 °F 29.91 in Calm     91 % 0.00 in
05:18 72.1 °F 69.6 °F 29.90 in Calm     92 % 0.00 in
05:23 72.0 °F 69.2 °F 29.90 in Calm     91 % 0.00 in
05:28 72.0 °F 69.5 °F 29.90 in Calm     92 % 0.00 in
05:33 71.9 °F 69.4 °F 29.91 in Calm     92 % 0.00 in
05:38 71.8 °F 69.3 °F 29.91 in Calm     92 % 0.00 in
05:40 71.8 °F 69.3 °F 29.91 in Calm     92 % 0.00 in
05:45 71.7 °F 69.3 °F 29.91 in Calm     92 % 0.00 in
05:46 71.7 °F 69.3 °F 29.91 in Calm     92 % 0.00 in
05:51 71.7 °F 69.3 °F 29.90 in Calm   1.2 mph 92 % 0.00 in
05:56 71.7 °F 69.3 °F 29.91 in Calm     92 % 0.00 in
06:01 71.7 °F 69.6 °F 29.90 in Calm     93 % 0.00 in
06:06 71.7 °F 69.6 °F 29.91 in Calm     93 % 0.00 in
06:11 71.6 °F 69.5 °F 29.91 in Calm     93 % 0.00 in
06:16 71.6 °F 69.5 °F 29.91 in Calm     93 % 0.00 in
06:21 71.6 °F 69.5 °F 29.91 in Calm     93 % 0.00 in
06:26 71.7 °F 69.6 °F 29.91 in Calm     93 % 0.00 in
06:31 71.8 °F 70.0 °F 29.91 in Calm     94 % 0.00 in
06:36 71.9 °F 70.1 °F 29.91 in Calm     94 % 0.00 in
06:41 72.2 °F 70.7 °F 29.92 in Calm     95 % 0.00 in
06:46 72.6 °F 71.1 °F 29.92 in Calm     95 % 0.00 in
06:51 73.2 °F 72.0 °F 29.92 in WSW 0.4 mph   96 % 0.00 in
06:52 73.2 °F 72.0 °F 29.92 in WSW 0.4 mph 1.2 mph 96 % 0.00 in
06:57 73.5 °F 72.3 °F 29.92 in Calm     96 % 0.00 in
07:02 73.8 °F 72.6 °F 29.93 in Calm     96 % 0.00 in
07:07 74.1 °F 72.9 °F 29.93 in Calm     96 % 0.00 in
07:12 74.3 °F 72.8 °F 29.93 in Calm     95 % 0.00 in
07:17 74.6 °F 72.8 °F 29.93 in Calm   1.2 mph 94 % 0.00 in
07:22 74.9 °F 73.1 °F 29.93 in Calm     94 % 0.00 in
07:27 75.3 °F 72.8 °F 29.93 in Calm     92 % 0.00 in
07:32 75.7 °F 73.2 °F 29.93 in Calm     92 % 0.00 in
07:37 76.2 °F 73.4 °F 29.93 in Calm     91 % 0.00 in
07:42 76.6 °F 73.8 °F 29.94 in Calm     91 % 0.00 in
07:47 76.9 °F 73.7 °F 29.94 in Calm     90 % 0.00 in
07:52 77.3 °F 73.8 °F 29.93 in Calm     89 % 0.00 in
07:57 77.6 °F 74.1 °F 29.93 in North 0.1 mph 1.2 mph 89 % 0.00 in
08:02 77.8 °F 74.3 °F 29.93 in Calm   1.2 mph 89 % 0.00 in
08:07 77.9 °F 74.1 °F 29.93 in Calm     88 % 0.00 in
08:12 78.0 °F 74.2 °F 29.93 in Calm     88 % 0.00 in
08:17 78.1 °F 74.6 °F 29.93 in North 0.1 mph   89 % 0.00 in
08:22 78.2 °F 74.4 °F 29.93 in Calm     88 % 0.00 in
08:28 78.3 °F 74.5 °F 29.93 in NW 0.3 mph 1.2 mph 88 % 0.00 in
08:33 78.5 °F 74.3 °F 29.93 in Calm     87 % 0.00 in
08:38 78.6 °F 74.4 °F 29.93 in Calm     87 % 0.00 in
08:43 78.8 °F 74.3 °F 29.93 in Calm     86 % 0.00 in
08:48 79.0 °F 74.1 °F 29.93 in Calm   2.3 mph 85 % 0.00 in
08:51 79.1 °F 74.5 °F 29.93 in Calm   2.0 mph 86 % 0.00 in
08:56 79.3 °F 74.7 °F 29.93 in Calm   1.0 mph 86 % 0.00 in
09:00 79.5 °F 74.6 °F 29.93 in NE 1.5 mph 2.3 mph 85 % 0.00 in
09:06 79.7 °F 74.4 °F 29.93 in Calm   2.0 mph 84 % 0.00 in
09:10 79.9 °F 74.3 °F 29.93 in Calm   2.0 mph 83 % 0.00 in
09:15 80.0 °F 74.0 °F 29.93 in Calm   2.0 mph 82 % 0.00 in
09:18 80.1 °F 73.7 °F 29.93 in WNW 0.1 mph 1.2 mph 81 % 0.00 in
09:23 80.2 °F 73.8 °F 29.93 in Calm   1.2 mph 81 % 0.00 in
09:28 80.2 °F 73.5 °F 29.92 in Calm   1.2 mph 80 % 0.00 in
09:33 80.2 °F 74.2 °F 29.92 in Calm   1.2 mph 82 % 0.00 in
09:38 80.3 °F 74.3 °F 29.92 in Calm     82 % 0.00 in
09:43 80.4 °F 74.4 °F 29.92 in Calm   1.2 mph 82 % 0.00 in
09:48 80.6 °F 75.0 °F 29.92 in NW 0.4 mph 2.3 mph 83 % 0.00 in
09:53 80.9 °F 74.9 °F 29.92 in NW 0.5 mph 2.3 mph 82 % 0.00 in
09:58 81.3 °F 75.3 °F 29.92 in NW 1.3 mph 2.3 mph 82 % 0.00 in
10:03 81.8 °F 75.8 °F 29.92 in NW 0.1 mph 1.2 mph 82 % 0.00 in
10:08 82.4 °F 75.6 °F 29.92 in NW 0.2 mph 1.2 mph 80 % 0.00 in
10:13 83.1 °F 75.9 °F 29.92 in East 0.2 mph 1.2 mph 79 % 0.00 in
10:18 84.0 °F 76.4 °F 29.92 in North 2.0 mph 3.5 mph 78 % 0.00 in
10:23 84.8 °F 76.8 °F 29.92 in North 0.9 mph 2.0 mph 77 % 0.00 in
10:28 85.6 °F 77.6 °F 29.92 in NNE 1.7 mph 4.0 mph 77 % 0.00 in
10:33 86.4 °F 76.7 °F 29.93 in NNE 3.1 mph 4.6 mph 73 % 0.00 in
10:38 87.1 °F 77.0 °F 29.93 in North 0.8 mph 3.5 mph 72 % 0.00 in
10:43 87.3 °F 74.1 °F 29.93 in North 0.7 mph 2.0 mph 65 % 0.00 in
10:48 88.0 °F 76.1 °F 29.92 in North 1.2 mph 2.3 mph 68 % 0.00 in
10:53 88.8 °F 76.9 °F 29.93 in Calm   1.2 mph 68 % 0.00 in
10:58 89.4 °F 74.7 °F 29.92 in North 1.3 mph 2.3 mph 62 % 0.00 in
11:03 90.2 °F 76.4 °F 29.92 in North 0.3 mph 3.5 mph 64 % 0.00 in
11:08 90.7 °F 73.9 °F 29.92 in North 1.6 mph 3.5 mph 58 % 0.00 in
11:13 90.6 °F 75.3 °F 29.92 in East 1.0 mph 3.5 mph 61 % 0.00 in
11:18 90.8 °F 76.0 °F 29.92 in NW 1.5 mph 3.0 mph 62 % 0.00 in
11:23 91.4 °F 76.5 °F 29.92 in North 1.1 mph 3.5 mph 62 % 0.00 in
11:29 91.9 °F 76.5 °F 29.92 in North 1.5 mph 3.5 mph 61 % 0.00 in
11:34 92.3 °F 75.9 °F 29.92 in North 2.0 mph 4.6 mph 59 % 0.00 in
11:39 92.3 °F 75.4 °F 29.92 in NNE 3.5 mph 4.6 mph 58 % 0.00 in
11:44 92.4 °F 74.4 °F 29.91 in North 2.9 mph 4.0 mph 56 % 0.00 in
11:49 92.6 °F 75.1 °F 29.91 in North 0.7 mph 2.3 mph 57 % 0.00 in
11:54 92.9 °F 74.4 °F 29.91 in North 3.8 mph 5.8 mph 55 % 0.00 in
11:59 93.2 °F 75.7 °F 29.91 in North 1.0 mph 3.5 mph 57 % 0.00 in
12:04 93.4 °F 74.3 °F 29.91 in North 1.9 mph 3.5 mph 54 % 0.00 in
12:09 93.6 °F 73.3 °F 29.91 in NNE 1.7 mph 2.3 mph 52 % 0.00 in
12:14 93.8 °F 74.6 °F 29.91 in NNE 2.5 mph 3.5 mph 54 % 0.00 in
12:19 93.9 °F 73.0 °F 29.91 in NW 1.0 mph 3.5 mph 51 % 0.00 in
12:24 93.9 °F 69.3 °F 29.91 in NW 1.9 mph 3.5 mph 45 % 0.00 in
12:29 93.9 °F 70.6 °F 29.90 in NNW 1.5 mph 3.5 mph 47 % 0.00 in
12:34 94.3 °F 71.6 °F 29.90 in NNE 1.6 mph 3.5 mph 48 % 0.00 in
12:40 94.3 °F 72.8 °F 29.89 in NW 2.3 mph 3.5 mph 50 % 0.00 in
12:45 94.6 °F 71.9 °F 29.89 in NNW 1.4 mph 3.5 mph 48 % 0.00 in
12:50 94.8 °F 72.7 °F 29.89 in NNW 0.8 mph 3.5 mph 49 % 0.00 in
12:55 94.7 °F 71.3 °F 29.89 in North 0.4 mph 2.3 mph 47 % 0.00 in
13:00 94.6 °F 70.6 °F 29.89 in North 0.4 mph 3.5 mph 46 % 0.00 in
13:05 94.8 °F 71.4 °F 29.88 in NNE 0.4 mph 3.5 mph 47 % 0.00 in
13:10 95.1 °F 71.1 °F 29.87 in NNE 0.5 mph 1.2 mph 46 % 0.00 in
13:15 95.1 °F 71.7 °F 29.87 in NNE 1.4 mph 3.5 mph 47 % 0.00 in
13:20 95.1 °F 71.7 °F 29.87 in Calm   1.2 mph 47 % 0.00 in
13:25 95.1 °F 72.9 °F 29.88 in NNE 1.8 mph 3.5 mph 49 % 0.00 in
13:30 95.3 °F 74.3 °F 29.87 in North 0.3 mph 2.3 mph 51 % 0.00 in
13:35 95.4 °F 75.0 °F 29.87 in WNW 1.8 mph 3.5 mph 52 % 0.00 in
13:40 95.7 °F 74.1 °F 29.87 in WSW 2.8 mph 6.9 mph 50 % 0.00 in
13:45 95.9 °F 73.7 °F 29.87 in WNW 2.2 mph 4.6 mph 49 % 0.00 in
13:50 96.1 °F 73.8 °F 29.87 in NW 4.7 mph 5.8 mph 49 % 0.00 in
13:55 96.3 °F 73.4 °F 29.86 in West 4.1 mph 5.8 mph 48 % 0.00 in
14:01 96.6 °F 75.5 °F 29.86 in NNE 3.9 mph 5.0 mph 51 % 0.00 in
14:06 96.5 °F 74.2 °F 29.86 in NNW 1.0 mph 6.0 mph 49 % 0.00 in
14:11 96.6 °F 74.9 °F 29.85 in North 2.0 mph 4.0 mph 50 % 0.00 in
14:16 96.9 °F 77.5 °F 29.85 in NNW 0.9 mph 2.3 mph 54 % 0.00 in
14:21 97.2 °F 75.5 °F 29.85 in NNW 1.8 mph 4.6 mph 50 % 0.00 in
14:26 97.4 °F 75.6 °F 29.85 in NNE 2.9 mph 3.5 mph 50 % 0.00 in
14:31 97.6 °F 74.0 °F 29.85 in NW 1.6 mph 3.5 mph 47 % 0.00 in
14:36 97.8 °F 74.2 °F 29.84 in NNW 0.7 mph 4.6 mph 47 % 0.00 in
14:41 97.9 °F 75.5 °F 29.84 in NNW 1.0 mph 3.0 mph 49 % 0.00 in
14:46 98.1 °F 76.2 °F 29.84 in Calm   2.0 mph 50 % 0.00 in
14:51 98.1 °F 74.4 °F 29.84 in NNW 1.0 mph 4.0 mph 47 % 0.00 in
14:56 98.0 °F 73.7 °F 29.83 in NNW 2.0 mph 5.0 mph 46 % 0.00 in
15:01 98.1 °F 75.7 °F 29.84 in Calm   1.2 mph 49 % 0.00 in
15:06 98.1 °F 74.4 °F 29.84 in NW 1.8 mph 3.5 mph 47 % 0.00 in
15:11 98.2 °F 74.5 °F 29.83 in South 0.8 mph 3.5 mph 47 % 0.00 in
15:16 98.4 °F 74.7 °F 29.83 in NNW 1.0 mph 2.3 mph 47 % 0.00 in
15:21 98.6 °F 74.9 °F 29.83 in West 0.1 mph 1.2 mph 47 % 0.00 in
15:26 98.8 °F 74.4 °F 29.83 in NNE 0.5 mph 3.5 mph 46 % 0.00 in
15:31 98.9 °F 74.5 °F 29.83 in NNE 0.1 mph 1.2 mph 46 % 0.00 in
15:36 98.9 °F 74.5 °F 29.83 in North 1.2 mph 3.5 mph 46 % 0.00 in
15:41 98.9 °F 74.5 °F 29.83 in NNE 2.7 mph 3.5 mph 46 % 0.00 in
15:46 98.7 °F 73.7 °F 29.83 in Calm     45 % 0.00 in
15:51 98.7 °F 74.3 °F 29.82 in ENE 0.5 mph 2.3 mph 46 % 0.00 in
15:56 98.3 °F 72.0 °F 29.83 in SE 2.0 mph 4.6 mph 43 % 0.00 in
16:01 98.0 °F 75.6 °F 29.83 in WSW 2.6 mph 4.6 mph 49 % 0.00 in
16:06 97.9 °F 76.1 °F 29.83 in SE 1.4 mph 4.0 mph 50 % 0.00 in
16:11 97.6 °F 75.2 °F 29.83 in SE 2.7 mph 4.6 mph 49 % 0.00 in
16:16 97.1 °F 76.0 °F 29.82 in SSW 2.4 mph 7.0 mph 51 % 0.00 in
16:21 96.7 °F 76.2 °F 29.82 in SE 2.1 mph 4.6 mph 52 % 0.00 in
16:26 96.1 °F 77.3 °F 29.82 in SSW 1.3 mph 3.5 mph 55 % 0.00 in
16:31 95.4 °F 76.7 °F 29.82 in SSE 0.7 mph 2.0 mph 55 % 0.00 in
16:36 94.8 °F 76.7 °F 29.83 in SE 0.1 mph 1.2 mph 56 % 0.00 in
16:41 93.7 °F 75.6 °F 29.82 in SE 2.5 mph 5.8 mph 56 % 0.00 in
16:46 92.9 °F 76.5 °F 29.82 in SSE 0.1 mph 2.0 mph 59 % 0.00 in
16:51 92.5 °F 77.1 °F 29.82 in SSE 1.6 mph 1.6 mph 61 % 0.00 in
16:56 92.1 °F 77.2 °F 29.82 in WSW 0.5 mph 2.3 mph 62 % 0.00 in
17:01 91.9 °F 77.5 °F 29.82 in SE 0.8 mph 1.2 mph 63 % 0.00 in
17:06 91.7 °F 77.3 °F 29.82 in South 0.8 mph 2.3 mph 63 % 0.00 in
17:12 91.4 °F 77.0 °F 29.81 in Calm   1.2 mph 63 % 0.00 in
17:17 91.1 °F 77.2 °F 29.81 in SSE 0.5 mph 2.0 mph 64 % 0.00 in
17:22 90.8 °F 76.9 °F 29.81 in South 0.7 mph 3.0 mph 64 % 0.00 in
17:27 90.5 °F 77.1 °F 29.81 in South 1.0 mph 2.3 mph 65 % 0.00 in
17:32 90.3 °F 77.4 °F 29.81 in SSW 2.2 mph 3.5 mph 66 % 0.00 in
17:37 90.1 °F 76.7 °F 29.81 in SSW 0.8 mph 3.5 mph 65 % 0.00 in
17:42 89.8 °F 76.5 °F 29.82 in SSW 1.2 mph 4.0 mph 65 % 0.00 in
17:47 89.6 °F 76.7 °F 29.82 in SSW 0.6 mph 5.8 mph 66 % 0.00 in
17:52 89.4 °F 76.5 °F 29.82 in Calm   1.2 mph 66 % 0.00 in
17:57 89.2 °F 76.8 °F 29.81 in SSW 0.7 mph 2.3 mph 67 % 0.00 in
18:02 89.0 °F 76.2 °F 29.80 in WSW 0.5 mph 2.0 mph 66 % 0.00 in
18:07 88.8 °F 76.0 °F 29.80 in SW 0.3 mph 2.3 mph 66 % 0.00 in
18:12 88.6 °F 75.8 °F 29.80 in South 0.1 mph 1.2 mph 66 % 0.00 in
18:17 88.4 °F 76.0 °F 29.79 in Calm     67 % 0.00 in
18:22 88.2 °F 75.9 °F 29.79 in Calm     67 % 0.00 in
18:27 88.0 °F 76.1 °F 29.79 in Calm     68 % 0.00 in
18:32 87.9 °F 76.5 °F 29.80 in Calm     69 % 0.00 in
18:37 87.7 °F 76.3 °F 29.80 in Calm   1.2 mph 69 % 0.00 in
18:42 87.5 °F 76.1 °F 29.80 in South 0.5 mph 2.3 mph 69 % 0.00 in
18:47 87.4 °F 76.4 °F 29.80 in Calm   1.2 mph 70 % 0.00 in
18:52 87.2 °F 76.2 °F 29.80 in Calm     70 % 0.00 in
18:57 87.0 °F 76.0 °F 29.81 in SW 0.5 mph 2.3 mph 70 % 0.00 in
19:02 86.8 °F 75.8 °F 29.81 in Calm     70 % 0.00 in
19:08 86.7 °F 76.2 °F 29.82 in WSW 0.8 mph 2.3 mph 71 % 0.00 in
19:13 86.5 °F 76.0 °F 29.82 in WSW 0.1 mph 1.2 mph 71 % 0.00 in
19:18 86.4 °F 75.9 °F 29.81 in WSW 0.1 mph 1.2 mph 71 % 0.00 in
19:23 86.3 °F 76.2 °F 29.81 in WSW 0.5 mph 3.5 mph 72 % 0.00 in
19:28 86.2 °F 76.1 °F 29.81 in WSW 0.1 mph 1.2 mph 72 % 0.00 in
19:33 86.1 °F 76.0 °F 29.81 in WSW 1.0 mph 3.5 mph 72 % 0.00 in
19:38 86.0 °F 76.3 °F 29.82 in SSW 0.1 mph 3.5 mph 73 % 0.00 in
19:43 85.9 °F 76.2 °F 29.82 in Calm   1.2 mph 73 % 0.00 in
19:48 85.8 °F 76.1 °F 29.82 in Calm     73 % 0.00 in
19:53 85.7 °F 76.0 °F 29.82 in Calm   1.2 mph 73 % 0.00 in
19:58 85.6 °F 75.9 °F 29.82 in Calm     73 % 0.00 in
20:03 85.5 °F 75.9 °F 29.82 in Calm     73 % 0.00 in
20:08 85.4 °F 76.2 °F 29.82 in Calm     74 % 0.00 in
20:13 85.3 °F 76.1 °F 29.82 in Calm     74 % 0.00 in
20:15 85.2 °F 76.0 °F 29.82 in Calm     74 % 0.00 in
20:21 85.1 °F 75.9 °F 29.81 in Calm     74 % 0.00 in
20:25 85.0 °F 75.8 °F 29.81 in Calm     74 % 0.00 in
20:31 84.8 °F 76.0 °F 29.80 in Calm     75 % 0.00 in
20:35 84.7 °F 75.9 °F 29.80 in SW 0.2 mph 1.2 mph 75 % 0.00 in
20:41 84.6 °F 75.8 °F 29.79 in Calm     75 % 0.00 in
20:46 84.4 °F 76.0 °F 29.79 in Calm     76 % 0.00 in
20:51 84.3 °F 76.3 °F 29.79 in Calm     77 % 0.00 in
20:56 84.1 °F 76.1 °F 29.79 in Calm   1.0 mph 77 % 0.00 in
21:01 84.0 °F 76.0 °F 29.79 in Calm   1.2 mph 77 % 0.00 in
21:06 83.8 °F 75.8 °F 29.79 in Calm   1.0 mph 77 % 0.00 in
21:11 83.7 °F 75.7 °F 29.79 in SW 0.2 mph 1.2 mph 77 % 0.00 in
21:16 83.5 °F 75.5 °F 29.79 in Calm   2.0 mph 77 % 0.00 in
21:21 83.4 °F 75.4 °F 29.79 in Calm   1.0 mph 77 % 0.00 in
21:26 83.2 °F 75.2 °F 29.79 in Calm   1.0 mph 77 % 0.00 in
21:31 83.1 °F 75.1 °F 29.79 in SW 1.0 mph 5.0 mph 77 % 0.00 in
21:36 82.9 °F 73.8 °F 29.80 in WSW 3.0 mph 15.0 mph 74 % 0.00 in
21:41 82.9 °F 73.4 °F 29.80 in WSW 3.0 mph 9.0 mph 73 % 0.00 in
21:46 82.9 °F 73.4 °F 29.80 in WSW 3.0 mph 8.0 mph 73 % 0.00 in
21:51 82.9 °F 72.9 °F 29.80 in West 2.0 mph 5.0 mph 72 % 0.00 in
21:56 82.9 °F 72.9 °F 29.80 in West 3.0 mph 9.0 mph 72 % 0.00 in
22:01 82.9 °F 72.9 °F 29.80 in SSW 2.1 mph 8.1 mph 72 % 0.00 in
22:06 82.8 °F 72.8 °F 29.81 in SW 4.0 mph 13.8 mph 72 % 0.00 in
22:11 82.7 °F 72.7 °F 29.81 in WSW 3.8 mph 13.8 mph 72 % 0.00 in
22:16 82.5 °F 72.6 °F 29.81 in WNW 3.9 mph 8.1 mph 72 % 0.00 in
22:21 82.3 °F 72.0 °F 29.81 in WNW 7.0 mph 13.8 mph 71 % 0.00 in
22:24 82.1 °F 71.3 °F 29.81 in SW 6.1 mph 12.7 mph 70 % 0.00 in
22:29 81.8 °F 71.1 °F 29.81 in SW 4.8 mph 11.5 mph 70 % 0.00 in
22:34 81.6 °F 70.4 °F 29.81 in WSW 2.6 mph 9.2 mph 69 % 0.00 in
22:39 81.3 °F 70.2 °F 29.81 in West 1.3 mph 9.2 mph 69 % 0.00 in
22:44 81.1 °F 70.0 °F 29.81 in SW 5.5 mph 8.1 mph 69 % 0.00 in
22:49 80.9 °F 70.2 °F 29.80 in WSW 4.0 mph 8.1 mph 70 % 0.00 in
22:54 80.6 °F 69.9 °F 29.81 in SSW 3.2 mph 6.9 mph 70 % 0.00 in
22:59 80.4 °F 69.7 °F 29.80 in SW 4.2 mph 6.9 mph 70 % 0.00 in
23:04 80.2 °F 69.5 °F 29.81 in WSW 4.2 mph 6.9 mph 70 % 0.00 in
23:09 80.0 °F 69.3 °F 29.81 in SW 1.8 mph 3.5 mph 70 % 0.00 in
23:14 79.8 °F 69.6 °F 29.81 in WSW 3.1 mph 6.0 mph 71 % 0.00 in
23:19 79.7 °F 69.0 °F 29.81 in West 4.8 mph 6.9 mph 70 % 0.00 in
23:24 79.6 °F 69.0 °F 29.81 in SW 2.9 mph 4.6 mph 70 % 0.00 in
23:29 79.4 °F 69.2 °F 29.80 in WSW 3.5 mph 6.9 mph 71 % 0.00 in
23:34 79.3 °F 69.1 °F 29.80 in WSW 1.3 mph 4.0 mph 71 % 0.00 in
23:39 79.2 °F 69.0 °F 29.81 in WSW 4.7 mph 6.9 mph 71 % 0.00 in
23:44 79.1 °F 68.9 °F 29.81 in WSW 1.2 mph 2.3 mph 71 % 0.00 in
23:49 79.1 °F 69.3 °F 29.81 in West 3.7 mph 6.0 mph 72 % 0.00 in
23:54 79.0 °F 69.2 °F 29.81 in WSW 1.9 mph 8.1 mph 72 % 0.00 in
23:59 78.9 °F 69.1 °F 29.80 in WSW 0.7 mph 3.5 mph 72 % 0.00 in
Crab Meadow Weather
Compliments of Weather Underground - 3 mb

Script developed by  Jim McMurry - jmcmurry@mwt.net Adapted for the template by  Wim van der Kuil - Leuven-Template.eu

Weather Terms: Flood Stage - The level or stage at which a stream overflows its banks or the stage at which the overflow of a stream begins to cause damage.